Aviation Digital Data Service (ADDS)

Output produced by TAFs form (2110 UTC 23 July 2016)
found at http://www.aviationweather.gov/adds/tafs/
 
KABE 231738Z 2318/2418 29012G20KT P6SM SKC 
     FM240000 31007KT P6SM SKC 
     FM240300 VRB03KT P6SM SKC